Josserand, Texas
Current Conditions -  °F | °C
As of 3:53 AM on Thursday 18 Dec 2014 (Local Time) from KLFK Reporting Station
Light Rain Light Rain  
Wind Chill: 54°   Ceiling: 1300
Heat Index: 54°   Visibility: 9mi
Dew Point: 46°   Wind: 5mph
Humidity: 75%   Direction: 30°NNE
Pressure: 30.1"   Gusts: NA
Location:  31.0585°N, 95.0561°W
Report Text: KLFK 180953Z AUTO 03004KT 9SM -RA OVC013 12/08 A3010 RMK AO2 RAB49 SLP190 P0000 T01220078
Loading
Personal Weather Stations






























Interactive Weather Map New forecast layout! Learn more

10-Day Weather Forecast

Advertisements
Track Severe Weather on mobile